Time;durP1;ratioP1;P1;durP2;ratioP2;P2;SDS_P1;SDS_P2;PMS_P1;PMS_P2;Temp;Humidity;BMP_temperature;BMP_pressure;BME280_temperature;BME280_humidity;BME280_pressure;Samples;Min_cycle;Max_cycle;Signal;HPM_P1;HPM_P2
2023/01/13 00:00:49;;;;;;;1999.90;999.90;;;10.60;99.90;;;;;;5036459;28;20466;-70
2023/01/13 00:03:15;;;;;;;1999.90;999.90;;;10.60;99.90;;;;;;5037632;28;20803;-70
2023/01/13 00:05:40;;;;;;;1999.90;999.90;;;10.60;99.90;;;;;;5037296;28;20410;-70
2023/01/13 00:08:06;;;;;;;1999.90;999.90;;;10.50;99.90;;;;;;5037426;28;20168;-70
2023/01/13 00:10:33;;;;;;;1999.90;999.90;;;10.60;99.90;;;;;;5036854;28;20665;-70
2023/01/13 00:12:59;;;;;;;1999.90;999.90;;;10.50;99.90;;;;;;5040277;28;20953;-69
2023/01/13 00:15:25;;;;;;;1999.90;999.90;;;10.20;99.90;;;;;;5038562;28;20407;-69
2023/01/13 00:17:51;;;;;;;1999.90;999.90;;;9.90;99.90;;;;;;5037163;28;20417;-70
2023/01/13 00:20:17;;;;;;;1999.90;999.90;;;9.70;99.90;;;;;;5039442;28;20294;-69
2023/01/13 00:22:42;;;;;;;1999.90;999.90;;;9.60;99.90;;;;;;5035270;28;20261;-70
2023/01/13 00:25:08;;;;;;;1999.90;999.90;;;9.70;99.90;;;;;;5038139;28;20598;-70
2023/01/13 00:27:34;;;;;;;1999.90;999.90;;;9.80;99.90;;;;;;5039078;28;20172;-69
2023/01/13 00:29:59;;;;;;;1999.90;999.90;;;9.70;99.90;;;;;;5037357;28;20199;-69
2023/01/13 00:32:25;;;;;;;1999.90;999.90;;;9.80;99.90;;;;;;5035340;28;20545;-69
2023/01/13 00:34:51;;;;;;;1999.90;999.90;;;9.90;99.90;;;;;;5034268;28;20198;-68
2023/01/13 00:37:16;;;;;;;1999.90;999.90;;;9.90;99.90;;;;;;5034386;28;20171;-69
2023/01/13 00:39:42;;;;;;;1999.90;999.90;;;10.10;99.90;;;;;;5034306;28;20192;-69
2023/01/13 00:44:52;;;;;;;1999.90;999.90;;;10.20;99.90;;;;;;5036000;28;20226;-69
2023/01/13 00:47:17;;;;;;;1999.90;999.90;;;10.10;99.90;;;;;;5034332;28;20403;-69
2023/01/13 00:49:43;;;;;;;1999.90;999.90;;;10.60;99.90;;;;;;5034199;28;20178;-68
2023/01/13 00:52:10;;;;;;;1999.90;999.90;;;10.20;99.90;;;;;;5034048;28;20168;-69
2023/01/13 00:54:36;;;;;;;1999.90;999.90;;;10.20;99.90;;;;;;5033864;28;20636;-68
2023/01/13 00:57:03;;;;;;;1999.90;999.90;;;10.20;99.90;;;;;;5034416;28;20460;-68
2023/01/13 00:59:28;;;;;;;1999.90;999.90;;;10.20;99.90;;;;;;5033871;28;20202;-69
2023/01/13 01:01:54;;;;;;;1999.90;999.90;;;10.40;99.90;;;;;;5033552;28;20426;-68
2023/01/13 01:04:19;;;;;;;1999.90;999.90;;;10.30;99.90;;;;;;5034112;28;20199;-68
2023/01/13 01:06:45;;;;;;;1999.90;999.90;;;10.40;99.90;;;;;;5035126;28;20214;-68
2023/01/13 01:09:13;;;;;;;1999.90;999.90;;;10.30;99.90;;;;;;5035847;28;20233;-68
2023/01/13 01:11:40;;;;;;;1999.90;999.90;;;10.40;87.50;;;;;;5037285;28;20444;-68
2023/01/13 01:14:06;;;;;;;1999.90;999.90;;;10.40;44.40;;;;;;5039190;28;20407;-68
2023/01/13 01:16:32;;;;;;;1999.90;999.90;;;10.50;19.80;;;;;;5035316;28;20429;-68
2023/01/13 01:18:59;;;;;;;1999.90;999.90;;;10.40;1.00;;;;;;5033641;28;20510;-68
2023/01/13 01:21:26;;;;;;;1999.90;999.90;;;10.40;1.00;;;;;;5033591;28;20473;-68
2023/01/13 01:23:52;;;;;;;1999.90;999.90;;;10.30;99.90;;;;;;5033758;28;20418;-68
2023/01/13 01:26:24;;;;;;;1999.90;999.90;;;10.30;99.90;;;;;;5033408;28;20808;-69
2023/01/13 01:28:51;;;;;;;1999.90;999.90;;;10.20;1.00;;;;;;5034059;28;20428;-68
2023/01/13 01:31:30;;;;;;;1999.90;999.90;;;9.70;1.00;;;;;;5034932;28;20521;-69
2023/01/13 01:33:55;;;;;;;1999.90;999.90;;;9.40;99.90;;;;;;5033574;28;20415;-68
2023/01/13 01:36:25;;;;;;;1999.90;999.90;;;9.10;1.00;;;;;;5033225;28;20411;-68
2023/01/13 01:38:50;;;;;;;1999.90;999.90;;;9.10;1.00;;;;;;5035360;28;20184;-69
2023/01/13 01:41:20;;;;;;;1999.90;999.90;;;8.90;1.00;;;;;;5034305;28;20454;-69
2023/01/13 01:44:06;;;;;;;1999.90;999.90;;;8.80;1.00;;;;;;5038463;28;20168;-69
2023/01/13 01:46:37;;;;;;;1999.90;999.90;;;8.60;1.00;;;;;;5037088;28;20412;-69
2023/01/13 01:49:28;;;;;;;1999.90;999.90;;;8.40;3.90;;;;;;5036934;28;20761;-69
2023/01/13 01:52:06;;;;;;;1999.90;999.90;;;8.30;7.10;;;;;;5035789;28;20953;-69
2023/01/13 01:54:51;;;;;;;1999.90;999.90;;;8.30;1.00;;;;;;5037584;28;20408;-68
2023/01/13 01:57:29;;;;;;;1999.90;999.90;;;8.20;15.10;;;;;;5032538;28;20498;-68
2023/01/13 01:59:58;;;;;;;1999.90;999.90;;;8.30;23.80;;;;;;5033805;28;20454;-68
2023/01/13 02:02:24;;;;;;;1999.90;999.90;;;8.30;37.90;;;;;;5032633;28;20541;-69
2023/01/13 02:04:52;;;;;;;1999.90;999.90;;;8.40;34.20;;;;;;5032476;28;20983;-69
2023/01/13 02:07:21;;;;;;;1999.90;999.90;;;8.60;24.60;;;;;;5031949;28;20420;-69
2023/01/13 02:09:48;;;;;;;1999.90;999.90;;;8.70;36.90;;;;;;5031747;28;20420;-69
2023/01/13 02:12:33;;;;;;;1999.90;999.90;;;8.70;20.10;;;;;;5032284;28;20407;-68
2023/01/13 02:15:11;;;;;;;1999.90;999.90;;;8.80;20.40;;;;;;5035228;28;20497;-68
2023/01/13 02:17:37;;;;;;;1999.90;999.90;;;8.80;17.30;;;;;;5034308;28;20417;-68
2023/01/13 02:20:27;;;;;;;1999.90;999.90;;;8.90;18.30;;;;;;5034318;28;20590;-68
2023/01/13 02:23:07;;;;;;;1999.90;999.90;;;8.90;20.30;;;;;;5033001;28;20641;-68
2023/01/13 02:25:43;;;;;;;1999.90;999.90;;;9.00;14.00;;;;;;5033211;28;20432;-68
2023/01/13 02:28:21;;;;;;;1999.90;999.90;;;9.00;10.40;;;;;;5035121;28;20486;-69
2023/01/13 02:34:00;;;;;;;1999.90;999.90;;;9.00;1.00;;;;;;5035461;28;20485;-69
2023/01/13 02:36:32;;;;;;;1999.90;999.90;;;9.00;1.00;;;;;;5035376;28;20409;-68
2023/01/13 02:39:10;;;;;;;1999.90;999.90;;;9.10;1.00;;;;;;5034752;28;20444;-68
2023/01/13 02:44:41;;;;;;;1999.90;999.90;;;9.00;1.00;;;;;;5035478;28;20391;-68
2023/01/13 02:47:24;;;;;;;1999.90;999.90;;;9.10;1.00;;;;;;5034607;28;20440;-68
2023/01/13 02:49:56;;;;;;;1999.90;999.90;;;8.70;1.00;;;;;;5032731;28;20404;-67
2023/01/13 02:52:53;;;;;;;1999.90;999.90;;;8.90;1.00;;;;;;5033157;28;20405;-67
2023/01/13 02:55:24;;;;;;;1999.90;999.90;;;8.90;1.00;;;;;;5024908;28;20450;-68
2023/01/13 02:57:53;;;;;;;1999.90;999.90;;;8.90;1.00;;;;;;5032832;28;20484;-68
2023/01/13 03:00:21;;;;;;;1999.90;999.90;;;8.90;1.00;;;;;;5032632;28;20462;-67
2023/01/13 03:02:47;;;;;;;1999.90;999.90;;;8.90;1.00;;;;;;5032666;28;20845;-69
2023/01/13 03:05:15;;;;;;;1999.90;999.90;;;8.90;1.00;;;;;;5032315;28;20459;-68
2023/01/13 03:07:45;;;;;;;1999.90;999.90;;;9.00;1.00;;;;;;5032473;28;20413;-67
2023/01/13 03:10:48;;;;;;;1999.90;999.90;;;9.00;1.00;;;;;;5032480;28;20426;-69
2023/01/13 03:13:39;;;;;;;1999.90;999.90;;;8.90;1.00;;;;;;5032444;28;20404;-68
2023/01/13 03:16:33;;;;;;;1999.90;999.90;;;8.90;1.00;;;;;;5032136;28;20497;-68
2023/01/13 03:19:23;;;;;;;1999.90;999.90;;;8.90;1.00;;;;;;5032691;28;20457;-67
2023/01/13 03:22:07;;;;;;;1999.90;999.90;;;8.80;1.00;;;;;;5032377;28;20562;-68
2023/01/13 03:24:48;;;;;;;1999.90;999.90;;;8.80;1.00;;;;;;5034137;28;20406;-68
2023/01/13 03:27:32;;;;;;;1999.90;999.90;;;8.60;1.00;;;;;;5036054;28;20412;-67
2023/01/13 03:30:27;;;;;;;1999.90;999.90;;;8.70;1.00;;;;;;5035627;28;20859;-68
2023/01/13 03:33:00;;;;;;;1999.90;999.90;;;8.70;1.00;;;;;;5035314;28;20469;-68
2023/01/13 03:35:38;;;;;;;1999.90;999.90;;;8.70;1.00;;;;;;5035504;28;20415;-68
2023/01/13 03:38:32;;;;;;;1999.90;999.90;;;8.70;1.00;;;;;;5035310;28;20407;-69
2023/01/13 03:41:30;;;;;;;1999.90;999.90;;;8.70;1.00;;;;;;5035146;28;20476;-68
2023/01/13 03:44:26;;;;;;;1999.90;999.90;;;8.70;1.00;;;;;;5033240;28;20424;-68
2023/01/13 03:47:05;;;;;;;1999.90;999.90;;;8.70;1.00;;;;;;5036756;28;20774;-68
2023/01/13 03:49:44;;;;;;;1999.90;999.90;;;8.70;1.00;;;;;;5036519;28;20415;-68
2023/01/13 03:52:16;;;;;;;1999.90;999.90;;;8.70;1.00;;;;;;5036997;28;20426;-68
2023/01/13 03:54:48;;;;;;;1999.90;999.90;;;8.80;1.00;;;;;;5036559;28;20416;-68
2023/01/13 03:57:16;;;;;;;1999.90;999.90;;;8.70;1.00;;;;;;5036765;28;20453;-68
2023/01/13 03:59:46;;;;;;;1999.90;999.90;;;8.60;1.00;;;;;;5036074;28;20456;-68
2023/01/13 04:02:35;;;;;;;1999.90;999.90;;;8.70;1.00;;;;;;5036162;28;20413;-68
2023/01/13 04:05:04;;;;;;;1999.90;999.90;;;8.60;1.00;;;;;;5036225;28;20945;-68
2023/01/13 04:07:57;;;;;;;1999.90;999.90;;;8.60;1.00;;;;;;5035799;28;20435;-68
2023/01/13 04:10:30;;;;;;;1999.90;999.90;;;8.60;1.00;;;;;;5035854;28;20432;-68
2023/01/13 04:13:08;;;;;;;1999.90;999.90;;;8.60;1.00;;;;;;5035503;28;20764;-68
2023/01/13 04:15:41;;;;;;;1999.90;999.90;;;8.60;1.00;;;;;;5035354;28;21089;-68
2023/01/13 04:18:24;;;;;;;1999.90;999.90;;;8.60;1.00;;;;;;5035532;28;20438;-67
2023/01/13 04:20:52;;;;;;;1999.90;999.90;;;8.60;1.00;;;;;;5035057;28;20454;-68
2023/01/13 04:23:19;;;;;;;1999.90;999.90;;;8.50;1.00;;;;;;5034929;28;20890;-68
2023/01/13 04:25:45;;;;;;;1999.90;999.90;;;8.50;1.00;;;;;;5035195;28;20435;-68
2023/01/13 04:28:12;;;;;;;1999.90;999.90;;;8.60;1.00;;;;;;5034740;28;20435;-68
2023/01/13 04:30:38;;;;;;;1999.90;999.90;;;8.50;1.00;;;;;;5034351;28;20429;-68
2023/01/13 04:33:04;;;;;;;1999.90;999.90;;;8.60;1.00;;;;;;5034612;28;20408;-68
2023/01/13 04:35:31;;;;;;;1999.90;999.90;;;8.60;1.00;;;;;;5033557;28;20420;-68
2023/01/13 04:38:03;;;;;;;1999.90;999.90;;;8.50;1.00;;;;;;5034691;28;20172;-68
2023/01/13 04:40:29;;;;;;;1999.90;999.90;;;8.50;1.00;;;;;;5034270;28;20613;-68
2023/01/13 04:42:55;;;;;;;1999.90;999.90;;;8.60;1.00;;;;;;5034171;28;20448;-68
2023/01/13 04:45:20;;;;;;;1999.90;999.90;;;8.50;1.00;;;;;;5034024;28;20166;-68
2023/01/13 04:47:47;;;;;;;1999.90;999.90;;;8.50;1.00;;;;;;5034360;28;20171;-68
2023/01/13 04:50:13;;;;;;;1999.90;999.90;;;8.50;1.00;;;;;;5034116;28;20297;-68
2023/01/13 04:52:39;;;;;;;1999.90;999.90;;;8.50;1.00;;;;;;5038688;28;20413;-68
2023/01/13 04:55:06;;;;;;;1999.90;999.90;;;8.50;1.00;;;;;;5039978;28;20419;-68
2023/01/13 04:57:33;;;;;;;1999.90;999.90;;;8.50;1.00;;;;;;5038792;28;20205;-68
2023/01/13 05:00:00;;;;;;;1999.90;999.90;;;8.70;1.00;;;;;;5038449;28;20542;-68
2023/01/13 05:02:26;;;;;;;1999.90;999.90;;;8.50;1.00;;;;;;5039124;28;20787;-68
2023/01/13 05:04:51;;;;;;;1999.90;999.90;;;8.50;1.00;;;;;;5039841;28;20413;-68
2023/01/13 05:07:17;;;;;;;1999.90;999.90;;;8.50;1.00;;;;;;5039085;28;20229;-68
2023/01/13 05:09:42;;;;;;;1999.90;999.90;;;8.50;1.00;;;;;;5038896;28;20644;-68
2023/01/13 05:17:37;;;;;;;1999.90;999.90;;;8.40;1.00;;;;;;5033188;28;20829;-68
2023/01/13 05:20:04;;;;;;;1999.90;999.90;;;8.40;1.00;;;;;;5032580;28;20546;-68
2023/01/13 05:25:40;;;;;;;1999.90;999.90;;;8.50;1.00;;;;;;4991085;28;20802;-68
2023/01/13 05:28:06;;;;;;;1999.90;999.90;;;8.50;1.00;;;;;;4991005;28;20416;-68
2023/01/13 05:30:36;;;;;;;1999.90;999.90;;;8.80;1.00;;;;;;5011916;28;20428;-68
2023/01/13 05:33:02;;;;;;;1999.90;999.90;;;8.60;1.00;;;;;;5032795;28;20934;-69
2023/01/13 05:35:28;;;;;;;1999.90;999.90;;;8.70;1.00;;;;;;5032512;28;20426;-68
2023/01/13 05:37:54;;;;;;;1999.90;999.90;;;8.60;1.00;;;;;;5032436;28;20406;-68
2023/01/13 05:43:18;;;;;;;1999.90;999.90;;;8.70;1.00;;;;;;5033068;28;20407;-69
2023/01/13 05:45:45;;;;;;;1999.90;999.90;;;8.70;1.00;;;;;;5032766;28;20507;-68
2023/01/13 05:48:11;;;;;;;1999.90;999.90;;;8.60;1.00;;;;;;5032451;28;20415;-68
2023/01/13 05:50:36;;;;;;;1999.90;999.90;;;8.70;1.00;;;;;;5032308;28;20429;-69
2023/01/13 05:53:02;;;;;;;1999.90;999.90;;;8.70;1.00;;;;;;5032748;28;20182;-68
2023/01/13 05:55:28;;;;;;;1999.90;999.90;;;8.60;1.00;;;;;;5032611;28;20561;-68
2023/01/13 05:57:53;;;;;;;1999.90;999.90;;;8.70;1.00;;;;;;5032340;28;20415;-68
2023/01/13 06:00:19;;;;;;;1999.90;999.90;;;8.60;1.00;;;;;;5032165;28;20213;-68
2023/01/13 06:02:45;;;;;;;1999.90;999.90;;;8.60;1.00;;;;;;5032289;28;20173;-69
2023/01/13 06:05:10;;;;;;;1999.90;999.90;;;8.50;1.00;;;;;;5032552;28;20175;-67
2023/01/13 06:07:36;;;;;;;1999.90;999.90;;;8.60;1.00;;;;;;5032043;28;20657;-68
2023/01/13 06:10:01;;;;;;;1999.90;999.90;;;8.70;1.00;;;;;;5031967;28;20201;-68
2023/01/13 06:12:27;;;;;;;1999.90;999.90;;;8.70;1.00;;;;;;5032100;28;20644;-68
2023/01/13 06:14:52;;;;;;;1999.90;999.90;;;8.70;1.00;;;;;;5032530;28;20179;-68
2023/01/13 06:17:18;;;;;;;1999.90;999.90;;;8.70;1.00;;;;;;5032322;28;20185;-68
2023/01/13 06:19:44;;;;;;;1999.90;999.90;;;9.00;1.00;;;;;;5031843;28;20204;-68
2023/01/13 06:22:17;;;;;;;1999.90;999.90;;;8.80;1.00;;;;;;5032033;28;20224;-69
2023/01/13 06:24:45;;;;;;;1999.90;999.90;;;8.80;1.00;;;;;;5035453;28;20172;-67
2023/01/13 06:27:11;;;;;;;1999.90;999.90;;;8.80;1.00;;;;;;5045513;28;20421;-69
2023/01/13 06:29:37;;;;;;;1999.90;999.90;;;8.60;1.00;;;;;;5038073;28;20411;-68
2023/01/13 06:32:06;;;;;;;1999.90;999.90;;;8.70;1.00;;;;;;5032593;28;20413;-69
2023/01/13 06:34:34;;;;;;;1999.90;999.90;;;8.70;1.00;;;;;;5036159;28;20172;-68
2023/01/13 06:37:01;;;;;;;1999.90;999.90;;;8.70;1.00;;;;;;5038211;28;20929;-68
2023/01/13 06:39:30;;;;;;;1999.90;999.90;;;8.70;1.00;;;;;;5037258;28;20563;-68
2023/01/13 06:44:41;;;;;;;1999.90;999.90;;;8.60;1.00;;;;;;5037199;28;20485;-68
2023/01/13 06:47:07;;;;;;;1999.90;999.90;;;8.70;1.00;;;;;;5042274;28;20427;-68
2023/01/13 06:49:33;;;;;;;1999.90;999.90;;;8.60;1.00;;;;;;5046724;28;20416;-69
2023/01/13 06:51:58;;;;;;;1999.90;999.90;;;8.60;1.00;;;;;;5046841;28;20469;-68
2023/01/13 06:54:24;;;;;;;1999.90;999.90;;;8.60;1.00;;;;;;5046685;28;20222;-68
2023/01/13 06:56:50;;;;;;;1999.90;999.90;;;9.50;1.00;;;;;;5046281;28;20526;-68
2023/01/13 06:59:15;;;;;;;1999.90;999.90;;;8.60;99.90;;;;;;5047945;28;20193;-68
2023/01/13 07:01:41;;;;;;;1999.90;999.90;;;8.70;99.90;;;;;;5049714;28;20189;-69
2023/01/13 07:04:06;;;;;;;1999.90;999.90;;;8.60;99.90;;;;;;5045167;28;20173;-68
2023/01/13 07:06:32;;;;;;;1999.90;999.90;;;8.50;99.90;;;;;;5037366;28;20227;-69
2023/01/13 07:08:58;;;;;;;1999.90;999.90;;;8.50;99.90;;;;;;5035293;28;20172;-69
2023/01/13 07:11:23;;;;;;;1999.90;999.90;;;8.50;99.90;;;;;;5040174;28;20210;-69
2023/01/13 07:16:33;;;;;;;1999.90;999.90;;;8.50;99.90;;;;;;5036386;28;20523;-69
2023/01/13 07:18:59;;;;;;;1999.90;999.90;;;8.40;99.90;;;;;;5036248;28;20403;-68
2023/01/13 07:21:24;;;;;;;1999.90;999.90;;;8.40;99.90;;;;;;5035945;28;20211;-69
2023/01/13 07:23:50;;;;;;;1999.90;999.90;;;8.30;99.90;;;;;;5035456;28;20195;-68
2023/01/13 07:26:15;;;;;;;1999.90;999.90;;;8.30;1.00;;;;;;5035267;28;20166;-68
2023/01/13 07:28:41;;;;;;;1999.90;999.90;;;8.30;1.00;;;;;;5035039;28;20230;-68
2023/01/13 07:31:33;;;;;;;1999.90;999.90;;;8.30;1.00;;;;;;5035397;28;20887;-68
2023/01/13 07:33:59;;;;;;;1999.90;999.90;;;8.30;1.00;;;;;;5035615;28;20646;-68
2023/01/13 07:36:24;;;;;;;1999.90;999.90;;;8.30;1.00;;;;;;5035094;28;20423;-68
2023/01/13 07:38:50;;;;;;;1999.90;999.90;;;8.20;1.00;;;;;;5034935;28;20262;-68
2023/01/13 07:44:03;;;;;;;1999.90;999.90;;;8.30;1.00;;;;;;5035209;28;20179;-68
2023/01/13 07:46:29;;;;;;;1999.90;999.90;;;8.20;1.00;;;;;;5035303;28;20407;-68
2023/01/13 07:48:55;;;;;;;1999.90;999.90;;;8.20;1.00;;;;;;5034760;28;20418;-68
2023/01/13 07:51:20;;;;;;;1999.90;999.90;;;8.10;1.00;;;;;;5034781;28;20415;-68
2023/01/13 07:53:46;;;;;;;1999.90;999.90;;;8.10;1.00;;;;;;5035216;28;20175;-68
2023/01/13 07:56:12;;;;;;;1999.90;999.90;;;8.10;1.00;;;;;;5034681;28;20168;-69
2023/01/13 07:58:38;;;;;;;1999.90;999.90;;;8.20;1.00;;;;;;5034792;28;20176;-68
2023/01/13 08:01:11;;;;;;;1999.90;999.90;;;8.30;1.00;;;;;;5034671;28;20463;-68
2023/01/13 08:03:38;;;;;;;1999.90;999.90;;;8.20;1.00;;;;;;5034781;28;20229;-68
2023/01/13 08:06:05;;;;;;;1999.90;999.90;;;8.30;1.00;;;;;;5034681;28;20422;-68
2023/01/13 08:08:31;;;;;;;1999.90;999.90;;;8.30;1.00;;;;;;5034956;28;20399;-68
2023/01/13 08:11:01;;;;;;;1999.90;999.90;;;8.20;1.00;;;;;;5033509;28;20949;-68
2023/01/13 08:13:27;;;;;;;1999.90;999.90;;;8.30;1.00;;;;;;5034590;28;20234;-68
2023/01/13 08:15:59;;;;;;;1999.90;999.90;;;8.30;1.00;;;;;;5034670;28;20978;-69
2023/01/13 08:18:24;;;;;;;1999.90;999.90;;;8.30;1.00;;;;;;5034321;28;20181;-69
2023/01/13 08:20:51;;;;;;;1999.90;999.90;;;8.30;1.00;;;;;;5034438;28;20468;-67
2023/01/13 08:23:17;;;;;;;1999.90;999.90;;;8.40;1.00;;;;;;5034433;28;20173;-68
2023/01/13 08:25:43;;;;;;;1999.90;999.90;;;8.40;1.00;;;;;;5034457;28;20457;-68
2023/01/13 08:28:09;;;;;;;1999.90;999.90;;;8.40;1.00;;;;;;5034437;28;20835;-68
2023/01/13 08:30:35;;;;;;;1999.90;999.90;;;8.30;1.00;;;;;;5034290;28;20432;-68
2023/01/13 08:33:00;;;;;;;1999.90;999.90;;;8.40;1.00;;;;;;5034161;28;20183;-69
2023/01/13 08:35:26;;;;;;;1999.90;999.90;;;8.40;1.00;;;;;;5034737;28;20176;-68
2023/01/13 08:37:52;;;;;;;1999.90;999.90;;;8.50;1.00;;;;;;5034839;28;20633;-68
2023/01/13 08:40:19;;;;;;;1999.90;999.90;;;8.60;1.00;;;;;;5034101;28;20272;-68
2023/01/13 08:42:45;;;;;;;1999.90;999.90;;;8.70;1.00;;;;;;5033709;28;20418;-68
2023/01/13 08:45:12;;;;;;;1999.90;999.90;;;8.60;1.00;;;;;;5033514;28;20495;-69
2023/01/13 08:47:38;;;;;;;1999.90;999.90;;;8.70;99.90;;;;;;5033420;28;20165;-68
2023/01/13 08:50:05;;;;;;;1999.90;999.90;;;8.70;99.90;;;;;;5033264;28;20423;-68
2023/01/13 08:52:30;;;;;;;1999.90;999.90;;;8.70;99.90;;;;;;5033631;28;20415;-68
2023/01/13 08:54:56;;;;;;;1999.90;999.90;;;8.80;99.90;;;;;;5033795;28;20410;-69
2023/01/13 08:57:21;;;;;;;1999.90;999.90;;;8.80;99.90;;;;;;5033272;28;20220;-68
2023/01/13 08:59:47;;;;;;;1999.90;999.90;;;9.00;99.90;;;;;;5032968;28;20197;-68
2023/01/13 09:02:20;;;;;;;1999.90;999.90;;;8.90;20.50;;;;;;5033173;28;20505;-68
2023/01/13 09:04:46;;;;;;;1999.90;999.90;;;9.00;1.00;;;;;;5033248;28;20549;-69
2023/01/13 09:07:12;;;;;;;1999.90;999.90;;;9.00;25.10;;;;;;5033149;28;20411;-68
2023/01/13 09:09:38;;;;;;;1999.90;999.90;;;9.40;1.00;;;;;;5032769;28;20894;-69
2023/01/13 09:14:49;;;;;;;1999.90;999.90;;;9.20;99.90;;;;;;5033019;28;20412;-68
2023/01/13 09:17:15;;;;;;;1999.90;999.90;;;9.20;99.90;;;;;;5033023;28;20417;-68
2023/01/13 09:19:40;;;;;;;1999.90;999.90;;;9.30;1.00;;;;;;5032598;28;20449;-68
2023/01/13 09:22:12;;;;;;;1999.90;999.90;;;9.20;99.90;;;;;;5032334;28;20177;-68
2023/01/13 09:24:38;;;;;;;1999.90;999.90;;;9.30;1.00;;;;;;5032789;28;20409;-68
2023/01/13 09:27:03;;;;;;;1999.90;999.90;;;9.40;99.90;;;;;;5032570;28;20407;-68
2023/01/13 09:29:29;;;;;;;1999.90;999.90;;;9.50;1.00;;;;;;5032570;28;20169;-68
2023/01/13 09:31:56;;;;;;;1999.90;999.90;;;9.30;1.00;;;;;;5032585;28;20270;-68
2023/01/13 09:37:07;;;;;;;1999.90;999.90;;;9.40;1.00;;;;;;5032711;28;20417;-68
2023/01/13 09:39:34;;;;;;;1999.90;999.90;;;9.50;1.00;;;;;;5034500;28;20456;-68
2023/01/13 09:45:18;;;;;;;1999.90;999.90;;;9.60;99.90;;;;;;5031683;28;20395;-68
2023/01/13 09:47:44;;;;;;;1999.90;999.90;;;9.70;99.90;;;;;;5031595;28;20499;-68
2023/01/13 09:50:30;;;;;;;1999.90;999.90;;;9.70;99.90;;;;;;5031274;28;21013;-68
2023/01/13 09:52:56;;;;;;;1999.90;999.90;;;9.90;99.90;;;;;;5031705;28;20189;-68
2023/01/13 09:55:33;;;;;;;1999.90;999.90;;;9.80;99.90;;;;;;5031533;28;20404;-68
2023/01/13 09:58:01;;;;;;;1999.90;999.90;;;9.90;1.00;;;;;;5031404;28;20446;-68
2023/01/13 10:00:38;;;;;;;1999.90;999.90;;;9.80;1.00;;;;;;5030975;28;20460;-68
2023/01/13 10:03:19;;;;;;;1999.90;999.90;;;9.80;99.90;;;;;;5031443;28;20406;-68
2023/01/13 10:05:55;;;;;;;1999.90;999.90;;;9.90;99.90;;;;;;5031441;28;20404;-68
2023/01/13 10:08:27;;;;;;;1999.90;999.90;;;9.90;1.00;;;;;;5031158;28;20410;-68
2023/01/13 10:10:58;;;;;;;1999.90;999.90;;;9.80;1.00;;;;;;5031142;28;20875;-68
2023/01/13 10:13:27;;;;;;;1999.90;999.90;;;9.80;99.90;;;;;;5031314;28;20454;-68
2023/01/13 10:16:11;;;;;;;1999.90;999.90;;;9.90;1.00;;;;;;5031121;28;20418;-68
2023/01/13 10:19:10;;;;;;;1999.90;999.90;;;9.90;1.00;;;;;;5031070;28;20900;-68
2023/01/13 10:22:06;;;;;;;1999.90;999.90;;;9.90;87.50;;;;;;5031070;28;20464;-68
2023/01/13 10:24:54;;;;;;;1999.90;999.90;;;10.00;1.00;;;;;;5031123;28;20405;-68
2023/01/13 10:27:20;;;;;;;1999.90;999.90;;;10.00;1.00;;;;;;5031068;28;20434;-68
2023/01/13 10:29:45;;;;;;;1999.90;999.90;;;10.40;1.00;;;;;;5030897;28;20491;-68
2023/01/13 10:32:11;;;;;;;1999.90;999.90;;;10.40;99.90;;;;;;5031078;28;20610;-69
2023/01/13 10:34:50;;;;;;;1999.90;999.90;;;10.40;1.00;;;;;;5033021;28;20176;-68
2023/01/13 10:37:27;;;;;;;1999.90;999.90;;;10.30;1.00;;;;;;5034540;28;20258;-68
2023/01/13 10:40:00;;;;;;;1999.90;999.90;;;10.60;99.90;;;;;;4997229;28;1066643;-68
2023/01/13 10:42:25;;;;;;;1999.90;999.90;;;10.60;99.90;;;;;;5035864;28;20401;-68
2023/01/13 10:44:55;;;;;;;1999.90;999.90;;;10.40;1.00;;;;;;5035818;28;20399;-68
2023/01/13 10:47:27;;;;;;;1999.90;999.90;;;10.40;1.00;;;;;;5035629;28;20438;-68
2023/01/13 10:50:21;;;;;;;1999.90;999.90;;;10.80;10.10;;;;;;5035405;28;20398;-68
2023/01/13 10:53:14;;;;;;;1999.90;999.90;;;10.30;99.90;;;;;;5033595;28;21234;-69
2023/01/13 10:55:40;;;;;;;1999.90;999.90;;;10.40;99.90;;;;;;5035190;28;20401;-68
2023/01/13 10:58:17;;;;;;;1999.90;999.90;;;10.40;99.90;;;;;;5035363;28;20410;-68
2023/01/13 11:00:43;;;;;;;1999.90;999.90;;;10.30;99.90;;;;;;5034820;28;20681;-69
2023/01/13 11:03:19;;;;;;;1999.90;999.90;;;10.30;99.90;;;;;;5032755;28;20418;-69
2023/01/13 11:05:56;;;;;;;1999.90;999.90;;;10.20;1.00;;;;;;5035272;28;20254;-69
2023/01/13 11:08:44;;;;;;;1999.90;999.90;;;10.20;1.00;;;;;;5034545;28;20447;-70
2023/01/13 11:11:33;;;;;;;1999.90;999.90;;;10.20;99.90;;;;;;5034606;28;20437;-69
2023/01/13 11:16:53;;;;;;;1999.90;999.90;;;10.50;1.00;;;;;;5034132;28;20436;-69
2023/01/13 11:19:22;;;;;;;1999.90;999.90;;;10.30;99.90;;;;;;5034241;28;20451;-68
2023/01/13 11:21:52;;;;;;;1999.90;999.90;;;10.30;99.90;;;;;;5033954;28;20456;-68
2023/01/13 11:24:26;;;;;;;1999.90;999.90;;;10.20;99.90;;;;;;5033712;28;20824;-68
2023/01/13 11:27:22;;;;;;;1999.90;999.90;;;10.20;99.90;;;;;;5033696;28;20406;-68
2023/01/13 11:30:12;;;;;;;1999.90;999.90;;;10.10;99.90;;;;;;5034061;28;20407;-68
2023/01/13 11:33:00;;;;;;;1999.90;999.90;;;10.20;99.90;;;;;;5034108;28;20408;-68
2023/01/13 11:35:29;;;;;;;1999.90;999.90;;;10.20;99.90;;;;;;5033955;28;20506;-68
2023/01/13 11:38:01;;;;;;;1999.90;999.90;;;10.20;99.90;;;;;;5034289;28;20409;-68
2023/01/13 11:40:35;;;;;;;1999.90;999.90;;;10.20;1.00;;;;;;5035359;28;20470;-68
2023/01/13 11:43:28;;;;;;;1999.90;999.90;;;10.30;46.70;;;;;;5044329;28;20479;-68
2023/01/13 11:45:57;;;;;;;1999.90;999.90;;;10.20;1.00;;;;;;5044569;28;20406;-68
2023/01/13 11:48:30;;;;;;;1999.90;999.90;;;10.20;99.90;;;;;;5044031;28;20497;-68
2023/01/13 11:51:12;;;;;;;1999.90;999.90;;;10.20;99.90;;;;;;5042580;28;20433;-69
2023/01/13 11:53:51;;;;;;;1999.90;999.90;;;10.10;99.90;;;;;;5044473;28;20402;-68
2023/01/13 11:56:23;;;;;;;1999.90;999.90;;;10.10;1.00;;;;;;5043888;28;20778;-68
2023/01/13 11:59:13;;;;;;;1999.90;999.90;;;10.40;1.00;;;;;;5042807;28;20403;-68
2023/01/13 12:02:12;;;;;;;1999.90;999.90;;;10.30;99.90;;;;;;5042480;28;20434;-68
2023/01/13 12:04:55;;;;;;;1999.90;999.90;;;10.50;1.00;;;;;;5042817;28;20400;-68
2023/01/13 12:07:32;;;;;;;1999.90;999.90;;;10.50;1.00;;;;;;5042796;28;20479;-68
2023/01/13 12:10:12;;;;;;;1999.90;999.90;;;10.40;50.00;;;;;;5042478;28;20429;-68
2023/01/13 12:12:49;;;;;;;1999.90;999.90;;;10.50;99.90;;;;;;5043458;28;20396;-68
2023/01/13 12:15:21;;;;;;;1999.90;999.90;;;10.40;1.00;;;;;;5043148;28;20892;-68
2023/01/13 12:18:12;;;;;;;1999.90;999.90;;;10.30;99.90;;;;;;5042797;28;20805;-68
2023/01/13 12:20:47;;;;;;;1999.90;999.90;;;10.80;99.90;;;;;;5041858;28;20469;-68
2023/01/13 12:23:43;;;;;;;1999.90;999.90;;;11.40;99.90;;;;;;5042679;28;20408;-68
2023/01/13 12:26:14;;;;;;;1999.90;999.90;;;11.80;1.00;;;;;;5036136;28;20545;-68
2023/01/13 12:28:59;;;;;;;1999.90;999.90;;;12.20;99.90;;;;;;5042025;28;20481;-68
2023/01/13 12:31:26;;;;;;;1999.90;999.90;;;12.20;99.90;;;;;;5041837;28;20924;-68
2023/01/13 12:34:13;;;;;;;1999.90;999.90;;;12.30;99.90;;;;;;5043224;28;20409;-68
2023/01/13 12:37:14;;;;;;;1999.90;999.90;;;12.50;1.00;;;;;;5041923;28;20430;-68
2023/01/13 12:40:18;;;;;;;1999.90;999.90;;;12.70;46.80;;;;;;5038877;28;20461;-69
2023/01/13 12:45:46;;;;;;;1999.90;999.90;;;12.60;1.00;;;;;;5041001;28;20386;-69
2023/01/13 12:49:06;;;;;;;1999.90;999.90;;;12.10;99.90;;;;;;5041270;28;20407;-68
2023/01/13 12:51:34;;;;;;;1999.90;999.90;;;11.60;57.70;;;;;;4999460;28;20204;-69
2023/01/13 12:54:02;;;;;;;1999.90;999.90;;;10.90;99.90;;;;;;5033432;28;20506;-69
2023/01/13 12:56:31;;;;;;;1999.90;999.90;;;10.50;1.00;;;;;;5039824;28;20418;-69
2023/01/13 12:59:15;;;;;;;1999.90;999.90;;;9.70;99.90;;;;;;5040262;28;20416;-70
2023/01/13 13:01:41;;;;;;;1999.90;999.90;;;9.20;1.00;;;;;;5035269;28;20443;-68
2023/01/13 13:04:12;;;;;;;1999.90;999.90;;;8.80;1.00;;;;;;5034262;28;20405;-68
2023/01/13 13:06:42;;;;;;;1999.90;999.90;;;8.50;37.90;;;;;;5034008;28;20406;-71
2023/01/13 13:09:21;;;;;;;1999.90;999.90;;;8.30;99.90;;;;;;5033596;28;20417;-68
2023/01/13 13:14:40;;;;;;;1999.90;999.90;;;8.00;99.90;;;;;;5038725;28;20395;-68
2023/01/13 13:17:27;;;;;;;1999.90;999.90;;;7.90;99.90;;;;;;5038619;28;20766;-68
2023/01/13 13:19:54;;;;;;;1999.90;999.90;;;7.60;99.90;;;;;;5036299;28;20972;-68